Terminal Aerodrome Forecast
Issued by NWS Brownsville, TX

Current Version | Previous Version | Text Only | Print | Product List | Glossary Off
Versions: 1 2 3 4 5 6 7 8 9 10 11 12 13 14 15

000
FTUS44 KBRO 061259 AAA
TAFMFE
TAF AMD
KMFE 061259Z 0613/0712 00000KT P6SM SKC
     FM070000 12012KT P6SM SKC
     FM070600 11005KT P6SM SCT250=

USA.gov is the U.S. government's official web portal to all federal, state and local government web resources and services.